Huntsville Municipal Airport
KUTS : now visible

Airfield :











YOU CAN JOIN US ON...

 
LOGIN :

Register | Disclaimer

   EN    FR    IT 

 









Legend :    VFR   Marginal VFR   IFR   Intensive IFR   Very Intensive IFR
Visi :
Ceiling :
>= 8 km
>= 3000ft
5 to 8 km
1000 to 3000 ft
1500m to 5 km
500 to 1000 ft
800 to 1500m
200 to 500 ft
< 800m
< 200 ft
Symbols :   Thunderstorms  Fog  Heavy snow  Heavy precipitations  Wind > 20 kt






- Airport Elevation : 363 ft


KUTS - Huntsville Municipal

CURRENT METAR :
  • 141853Z AUTO VRB04KT 10SM SCT021 27/22 A2997 RMK AO2 SLP144 T02720217 $

EXPIRED METARs :
  • 141753Z AUTO 07003KT 10SM FEW032 FEW043 SCT055 26/21 A3000 RMK AO2 SLP155 60038 T02610211 10261 20183 58009 $
  • 141730Z AUTO 08003KT 10SM FEW009 FEW022 24/21 A3001 RMK AO2 T02440206 $
  • 141720Z AUTO 08003KT 10SM FEW010 SCT022 23/20 A3001 RMK AO2 T02330200 $
  • 141653Z AUTO 10004KT 10SM SCT007 BKN025 OVC031 22/21 A3002 RMK AO2 SLP162 T02220206 $
  • 141641Z AUTO VRB03KT 10SM BKN006 OVC025 21/19 A3003 RMK AO2 CIG 005V009 T02110194 $

TAF KUTS
Valid from the 14 at 18:00 until the 15 at 18:00 UTC


141720Z 1418/1518 VRB03KT P6SM VCTS SCT010CB BKN025 OVC050
FM150100 13006KT P6SM BKN050
FM150800 17005KT 6SM BR BKN015
FM151500 21007KT P6SM BKN025
FM151700 22008KT P6SM BKN140



MET'MAP, your aeronautical weather chart ! - Copyright ORBIFLY December 2007 - Disclaimer

ORBIFLY MET'MAP TEAM :

Programming & Development : Alexandra Zaïnal
Concept & Development : Baudouin d'Aumeries
Co-Development & Prog : Marc-Olivier Méhu
Technical & hardware support : Manuel Goepfert

Contact : metmap@orbifly.com




SOURCES & CREDITS :

   NOAA       Earth
Advisory